sensor_id;sensor_type;location;lat;lon;timestamp;temperature;humidity
15452;DHT22;7827;53.594;9.938;2023-02-28T00:01:34;4.30;99.90
15452;DHT22;7827;53.594;9.938;2023-02-28T00:04:02;4.30;99.90
15452;DHT22;7827;53.594;9.938;2023-02-28T00:06:30;4.30;99.90
15452;DHT22;7827;53.594;9.938;2023-02-28T00:08:59;4.30;99.90
15452;DHT22;7827;53.594;9.938;2023-02-28T00:11:27;4.30;99.90
15452;DHT22;7827;53.594;9.938;2023-02-28T00:13:58;4.30;99.90
15452;DHT22;7827;53.594;9.938;2023-02-28T00:16:27;4.30;99.90
15452;DHT22;7827;53.594;9.938;2023-02-28T00:18:55;4.20;99.90
15452;DHT22;7827;53.594;9.938;2023-02-28T00:21:23;4.20;99.90
15452;DHT22;7827;53.594;9.938;2023-02-28T00:23:51;4.20;99.90
15452;DHT22;7827;53.594;9.938;2023-02-28T00:26:20;4.10;99.90
15452;DHT22;7827;53.594;9.938;2023-02-28T00:28:48;4.10;99.90
15452;DHT22;7827;53.594;9.938;2023-02-28T00:31:20;4.20;99.90
15452;DHT22;7827;53.594;9.938;2023-02-28T00:33:49;4.10;99.90
15452;DHT22;7827;53.594;9.938;2023-02-28T00:36:20;4.10;99.90
15452;DHT22;7827;53.594;9.938;2023-02-28T00:38:48;4.20;99.90
15452;DHT22;7827;53.594;9.938;2023-02-28T00:41:17;4.20;99.90
15452;DHT22;7827;53.594;9.938;2023-02-28T00:43:47;4.10;99.90
15452;DHT22;7827;53.594;9.938;2023-02-28T00:46:15;4.10;99.90
15452;DHT22;7827;53.594;9.938;2023-02-28T00:48:45;4.00;99.90
15452;DHT22;7827;53.594;9.938;2023-02-28T00:51:14;4.00;99.90
15452;DHT22;7827;53.594;9.938;2023-02-28T00:53:42;4.00;99.90
15452;DHT22;7827;53.594;9.938;2023-02-28T00:56:10;4.00;99.90
15452;DHT22;7827;53.594;9.938;2023-02-28T00:58:39;4.00;99.90
15452;DHT22;7827;53.594;9.938;2023-02-28T01:01:07;4.00;99.90
15452;DHT22;7827;53.594;9.938;2023-02-28T01:03:38;3.90;99.90
15452;DHT22;7827;53.594;9.938;2023-02-28T01:06:07;3.90;99.90
15452;DHT22;7827;53.594;9.938;2023-02-28T01:08:37;3.80;99.90
15452;DHT22;7827;53.594;9.938;2023-02-28T01:11:10;3.70;99.90
15452;DHT22;7827;53.594;9.938;2023-02-28T01:13:40;3.70;99.90
15452;DHT22;7827;53.594;9.938;2023-02-28T01:16:12;3.70;99.90
15452;DHT22;7827;53.594;9.938;2023-02-28T01:18:41;3.70;99.90
15452;DHT22;7827;53.594;9.938;2023-02-28T01:21:13;3.60;99.90
15452;DHT22;7827;53.594;9.938;2023-02-28T01:23:44;3.60;99.90
15452;DHT22;7827;53.594;9.938;2023-02-28T01:26:19;3.70;99.90
15452;DHT22;7827;53.594;9.938;2023-02-28T01:28:49;3.70;99.90
15452;DHT22;7827;53.594;9.938;2023-02-28T01:31:19;3.70;99.90
15452;DHT22;7827;53.594;9.938;2023-02-28T01:33:49;3.60;99.90
15452;DHT22;7827;53.594;9.938;2023-02-28T01:36:21;3.60;99.90
15452;DHT22;7827;53.594;9.938;2023-02-28T01:38:51;3.60;99.90
15452;DHT22;7827;53.594;9.938;2023-02-28T01:41:24;3.60;99.90
15452;DHT22;7827;53.594;9.938;2023-02-28T01:44:01;3.60;99.90
15452;DHT22;7827;53.594;9.938;2023-02-28T01:46:34;3.50;99.90
15452;DHT22;7827;53.594;9.938;2023-02-28T01:49:07;3.50;99.90
15452;DHT22;7827;53.594;9.938;2023-02-28T01:51:42;3.50;99.90
15452;DHT22;7827;53.594;9.938;2023-02-28T01:54:20;3.50;99.90
15452;DHT22;7827;53.594;9.938;2023-02-28T01:56:55;3.50;99.90
15452;DHT22;7827;53.594;9.938;2023-02-28T01:59:30;3.50;99.90
15452;DHT22;7827;53.594;9.938;2023-02-28T02:02:02;3.50;99.90
15452;DHT22;7827;53.594;9.938;2023-02-28T02:04:35;3.40;99.90
15452;DHT22;7827;53.594;9.938;2023-02-28T02:07:08;3.40;99.90
15452;DHT22;7827;53.594;9.938;2023-02-28T02:09:37;3.30;99.90
15452;DHT22;7827;53.594;9.938;2023-02-28T02:12:12;3.30;99.90
15452;DHT22;7827;53.594;9.938;2023-02-28T02:14:58;3.40;99.90
15452;DHT22;7827;53.594;9.938;2023-02-28T02:17:35;3.40;99.90
15452;DHT22;7827;53.594;9.938;2023-02-28T02:20:45;3.40;99.90
15452;DHT22;7827;53.594;9.938;2023-02-28T02:24:00;3.40;99.90
15452;DHT22;7827;53.594;9.938;2023-02-28T02:27:08;3.40;99.90
15452;DHT22;7827;53.594;9.938;2023-02-28T02:30:19;3.40;99.90
15452;DHT22;7827;53.594;9.938;2023-02-28T02:36:45;3.40;99.90
15452;DHT22;7827;53.594;9.938;2023-02-28T02:39:23;3.40;99.90
15452;DHT22;7827;53.594;9.938;2023-02-28T02:42:02;3.40;99.90
15452;DHT22;7827;53.594;9.938;2023-02-28T02:44:42;3.40;99.90
15452;DHT22;7827;53.594;9.938;2023-02-28T02:47:18;3.30;99.90
15452;DHT22;7827;53.594;9.938;2023-02-28T02:49:52;3.20;99.90
15452;DHT22;7827;53.594;9.938;2023-02-28T02:52:31;3.30;99.90
15452;DHT22;7827;53.594;9.938;2023-02-28T02:55:07;3.30;99.90
15452;DHT22;7827;53.594;9.938;2023-02-28T02:57:45;3.30;99.90
15452;DHT22;7827;53.594;9.938;2023-02-28T03:00:18;3.30;99.90
15452;DHT22;7827;53.594;9.938;2023-02-28T03:02:51;3.20;99.90
15452;DHT22;7827;53.594;9.938;2023-02-28T03:05:23;3.10;99.90
15452;DHT22;7827;53.594;9.938;2023-02-28T03:07:56;3.00;99.90
15452;DHT22;7827;53.594;9.938;2023-02-28T03:10:34;2.90;99.90
15452;DHT22;7827;53.594;9.938;2023-02-28T03:13:15;3.00;99.90
15452;DHT22;7827;53.594;9.938;2023-02-28T03:16:06;3.00;99.90
15452;DHT22;7827;53.594;9.938;2023-02-28T03:18:54;2.90;99.90
15452;DHT22;7827;53.594;9.938;2023-02-28T03:21:36;2.80;99.90
15452;DHT22;7827;53.594;9.938;2023-02-28T03:24:17;2.80;99.90
15452;DHT22;7827;53.594;9.938;2023-02-28T03:26:54;2.90;99.90
15452;DHT22;7827;53.594;9.938;2023-02-28T03:29:32;2.80;99.90
15452;DHT22;7827;53.594;9.938;2023-02-28T03:32:06;2.80;99.90
15452;DHT22;7827;53.594;9.938;2023-02-28T03:34:46;2.70;99.90
15452;DHT22;7827;53.594;9.938;2023-02-28T03:37:20;2.70;99.90
15452;DHT22;7827;53.594;9.938;2023-02-28T03:39:55;2.70;99.90
15452;DHT22;7827;53.594;9.938;2023-02-28T03:42:29;2.70;99.90
15452;DHT22;7827;53.594;9.938;2023-02-28T03:45:04;2.70;99.90
15452;DHT22;7827;53.594;9.938;2023-02-28T03:47:39;2.70;99.90
15452;DHT22;7827;53.594;9.938;2023-02-28T03:50:17;2.60;99.90
15452;DHT22;7827;53.594;9.938;2023-02-28T03:52:51;2.70;99.90
15452;DHT22;7827;53.594;9.938;2023-02-28T03:55:29;2.60;99.90
15452;DHT22;7827;53.594;9.938;2023-02-28T03:58:05;2.50;99.90
15452;DHT22;7827;53.594;9.938;2023-02-28T04:00:44;2.50;99.90
15452;DHT22;7827;53.594;9.938;2023-02-28T04:03:15;2.30;99.90
15452;DHT22;7827;53.594;9.938;2023-02-28T04:05:49;2.20;99.90
15452;DHT22;7827;53.594;9.938;2023-02-28T04:08:20;2.10;99.90
15452;DHT22;7827;53.594;9.938;2023-02-28T04:10:55;2.00;99.90
15452;DHT22;7827;53.594;9.938;2023-02-28T04:13:27;1.80;99.90
15452;DHT22;7827;53.594;9.938;2023-02-28T04:15:55;1.80;99.90
15452;DHT22;7827;53.594;9.938;2023-02-28T04:18:23;1.80;99.90
15452;DHT22;7827;53.594;9.938;2023-02-28T04:20:51;1.70;99.90
15452;DHT22;7827;53.594;9.938;2023-02-28T04:23:20;1.80;99.90
15452;DHT22;7827;53.594;9.938;2023-02-28T04:25:48;1.80;99.90
15452;DHT22;7827;53.594;9.938;2023-02-28T04:28:19;1.70;99.90
15452;DHT22;7827;53.594;9.938;2023-02-28T04:30:47;1.60;99.90
15452;DHT22;7827;53.594;9.938;2023-02-28T04:33:15;1.50;99.90
15452;DHT22;7827;53.594;9.938;2023-02-28T04:35:44;1.50;99.90
15452;DHT22;7827;53.594;9.938;2023-02-28T04:38:12;1.50;99.90
15452;DHT22;7827;53.594;9.938;2023-02-28T04:40:40;1.40;99.90
15452;DHT22;7827;53.594;9.938;2023-02-28T04:43:09;1.50;99.90
15452;DHT22;7827;53.594;9.938;2023-02-28T04:45:38;1.50;99.90
15452;DHT22;7827;53.594;9.938;2023-02-28T04:48:06;1.40;99.90
15452;DHT22;7827;53.594;9.938;2023-02-28T04:50:35;1.30;99.90
15452;DHT22;7827;53.594;9.938;2023-02-28T04:53:03;1.30;99.90
15452;DHT22;7827;53.594;9.938;2023-02-28T04:55:31;1.30;99.90
15452;DHT22;7827;53.594;9.938;2023-02-28T04:58:00;1.30;99.90
15452;DHT22;7827;53.594;9.938;2023-02-28T05:00:28;1.20;99.90
15452;DHT22;7827;53.594;9.938;2023-02-28T05:02:58;1.20;99.90
15452;DHT22;7827;53.594;9.938;2023-02-28T05:05:26;1.20;99.90
15452;DHT22;7827;53.594;9.938;2023-02-28T05:07:55;1.20;99.90
15452;DHT22;7827;53.594;9.938;2023-02-28T05:10:23;1.20;99.90
15452;DHT22;7827;53.594;9.938;2023-02-28T05:12:52;1.10;99.90
15452;DHT22;7827;53.594;9.938;2023-02-28T05:15:20;1.10;99.90
15452;DHT22;7827;53.594;9.938;2023-02-28T05:17:49;1.10;99.90
15452;DHT22;7827;53.594;9.938;2023-02-28T05:20:18;1.00;99.90
15452;DHT22;7827;53.594;9.938;2023-02-28T05:22:47;1.00;99.90
15452;DHT22;7827;53.594;9.938;2023-02-28T05:25:19;1.00;99.90
15452;DHT22;7827;53.594;9.938;2023-02-28T05:27:49;1.00;99.90
15452;DHT22;7827;53.594;9.938;2023-02-28T05:30:18;0.90;99.90
15452;DHT22;7827;53.594;9.938;2023-02-28T05:32:50;0.90;99.90
15452;DHT22;7827;53.594;9.938;2023-02-28T05:35:20;0.90;99.90
15452;DHT22;7827;53.594;9.938;2023-02-28T05:37:49;0.90;99.90
15452;DHT22;7827;53.594;9.938;2023-02-28T05:40:18;0.90;99.90
15452;DHT22;7827;53.594;9.938;2023-02-28T05:42:47;0.90;99.90
15452;DHT22;7827;53.594;9.938;2023-02-28T05:45:17;0.90;99.90
15452;DHT22;7827;53.594;9.938;2023-02-28T05:47:46;0.80;99.90
15452;DHT22;7827;53.594;9.938;2023-02-28T05:50:14;0.80;99.90
15452;DHT22;7827;53.594;9.938;2023-02-28T05:52:48;0.70;99.90
15452;DHT22;7827;53.594;9.938;2023-02-28T05:55:17;0.70;99.90
15452;DHT22;7827;53.594;9.938;2023-02-28T05:57:45;0.70;99.90
15452;DHT22;7827;53.594;9.938;2023-02-28T06:00:14;0.70;99.90
15452;DHT22;7827;53.594;9.938;2023-02-28T06:02:44;0.70;99.90
15452;DHT22;7827;53.594;9.938;2023-02-28T06:05:13;0.60;99.90
15452;DHT22;7827;53.594;9.938;2023-02-28T06:07:44;0.60;99.90
15452;DHT22;7827;53.594;9.938;2023-02-28T06:10:13;0.60;99.90
15452;DHT22;7827;53.594;9.938;2023-02-28T06:12:42;0.60;99.90
15452;DHT22;7827;53.594;9.938;2023-02-28T06:15:12;0.60;99.90
15452;DHT22;7827;53.594;9.938;2023-02-28T06:17:42;0.60;99.90
15452;DHT22;7827;53.594;9.938;2023-02-28T06:20:11;0.60;99.90
15452;DHT22;7827;53.594;9.938;2023-02-28T06:22:40;0.70;99.90
15452;DHT22;7827;53.594;9.938;2023-02-28T06:25:11;0.70;99.90
15452;DHT22;7827;53.594;9.938;2023-02-28T06:27:39;0.70;99.90
15452;DHT22;7827;53.594;9.938;2023-02-28T06:30:08;0.60;99.90
15452;DHT22;7827;53.594;9.938;2023-02-28T06:32:37;0.60;99.90
15452;DHT22;7827;53.594;9.938;2023-02-28T06:35:07;0.60;99.90
15452;DHT22;7827;53.594;9.938;2023-02-28T06:37:35;0.60;99.90
15452;DHT22;7827;53.594;9.938;2023-02-28T06:40:08;0.70;99.90
15452;DHT22;7827;53.594;9.938;2023-02-28T06:42:40;0.70;99.90
15452;DHT22;7827;53.594;9.938;2023-02-28T06:45:10;0.70;99.90
15452;DHT22;7827;53.594;9.938;2023-02-28T06:47:41;0.70;99.90
15452;DHT22;7827;53.594;9.938;2023-02-28T06:50:11;0.80;99.90
15452;DHT22;7827;53.594;9.938;2023-02-28T06:52:40;0.80;99.90
15452;DHT22;7827;53.594;9.938;2023-02-28T06:55:11;0.80;99.90
15452;DHT22;7827;53.594;9.938;2023-02-28T06:57:40;0.80;99.90
15452;DHT22;7827;53.594;9.938;2023-02-28T07:00:09;0.90;99.90
15452;DHT22;7827;53.594;9.938;2023-02-28T07:02:38;1.00;99.90
15452;DHT22;7827;53.594;9.938;2023-02-28T07:05:07;1.30;99.90
15452;DHT22;7827;53.594;9.938;2023-02-28T07:07:36;1.60;99.90
15452;DHT22;7827;53.594;9.938;2023-02-28T07:10:08;2.00;99.90
15452;DHT22;7827;53.594;9.938;2023-02-28T07:12:39;2.20;99.90
15452;DHT22;7827;53.594;9.938;2023-02-28T07:15:09;2.50;99.90
15452;DHT22;7827;53.594;9.938;2023-02-28T07:17:50;2.80;99.90
15452;DHT22;7827;53.594;9.938;2023-02-28T07:20:31;2.90;99.90
15452;DHT22;7827;53.594;9.938;2023-02-28T07:22:59;3.00;99.90
15452;DHT22;7827;53.594;9.938;2023-02-28T07:25:29;3.10;99.90
15452;DHT22;7827;53.594;9.938;2023-02-28T07:27:57;3.20;99.90
15452;DHT22;7827;53.594;9.938;2023-02-28T07:30:27;3.20;99.90
15452;DHT22;7827;53.594;9.938;2023-02-28T07:32:55;3.10;99.90
15452;DHT22;7827;53.594;9.938;2023-02-28T07:35:23;3.10;99.90
15452;DHT22;7827;53.594;9.938;2023-02-28T07:37:52;3.00;99.90
15452;DHT22;7827;53.594;9.938;2023-02-28T07:40:20;2.90;99.90
15452;DHT22;7827;53.594;9.938;2023-02-28T07:42:50;2.90;99.90
15452;DHT22;7827;53.594;9.938;2023-02-28T07:45:18;2.80;99.90
15452;DHT22;7827;53.594;9.938;2023-02-28T07:47:46;2.80;99.90
15452;DHT22;7827;53.594;9.938;2023-02-28T07:50:16;2.80;99.90
15452;DHT22;7827;53.594;9.938;2023-02-28T07:52:44;2.90;99.90
15452;DHT22;7827;53.594;9.938;2023-02-28T07:55:12;2.80;99.90
15452;DHT22;7827;53.594;9.938;2023-02-28T07:57:43;2.90;99.90
15452;DHT22;7827;53.594;9.938;2023-02-28T08:00:13;2.90;99.90
15452;DHT22;7827;53.594;9.938;2023-02-28T08:02:42;3.00;99.90
15452;DHT22;7827;53.594;9.938;2023-02-28T08:05:11;3.10;99.90
15452;DHT22;7827;53.594;9.938;2023-02-28T08:07:39;3.30;99.90
15452;DHT22;7827;53.594;9.938;2023-02-28T08:10:08;3.40;99.90
15452;DHT22;7827;53.594;9.938;2023-02-28T08:12:37;3.40;99.90
15452;DHT22;7827;53.594;9.938;2023-02-28T08:15:07;3.50;99.90
15452;DHT22;7827;53.594;9.938;2023-02-28T08:17:37;3.60;99.90
15452;DHT22;7827;53.594;9.938;2023-02-28T08:20:07;3.60;99.90
15452;DHT22;7827;53.594;9.938;2023-02-28T08:22:37;3.70;99.90
15452;DHT22;7827;53.594;9.938;2023-02-28T08:25:06;3.80;99.90
15452;DHT22;7827;53.594;9.938;2023-02-28T08:27:35;3.80;99.90
15452;DHT22;7827;53.594;9.938;2023-02-28T08:30:04;4.00;99.90
15452;DHT22;7827;53.594;9.938;2023-02-28T08:32:33;4.10;99.90
15452;DHT22;7827;53.594;9.938;2023-02-28T08:35:04;4.20;99.90
15452;DHT22;7827;53.594;9.938;2023-02-28T08:37:33;4.20;99.90
15452;DHT22;7827;53.594;9.938;2023-02-28T08:40:01;4.30;99.90
15452;DHT22;7827;53.594;9.938;2023-02-28T08:42:32;4.30;99.90
15452;DHT22;7827;53.594;9.938;2023-02-28T08:45:00;4.50;99.90
15452;DHT22;7827;53.594;9.938;2023-02-28T08:47:29;4.60;99.90
15452;DHT22;7827;53.594;9.938;2023-02-28T08:49:57;4.70;99.90
15452;DHT22;7827;53.594;9.938;2023-02-28T08:52:27;4.70;99.90
15452;DHT22;7827;53.594;9.938;2023-02-28T08:54:55;4.90;99.90
15452;DHT22;7827;53.594;9.938;2023-02-28T08:57:24;4.90;99.90
15452;DHT22;7827;53.594;9.938;2023-02-28T08:59:54;5.00;99.90
15452;DHT22;7827;53.594;9.938;2023-02-28T09:02:22;5.10;99.90
15452;DHT22;7827;53.594;9.938;2023-02-28T09:04:50;5.10;99.90
15452;DHT22;7827;53.594;9.938;2023-02-28T09:07:18;5.20;99.90
15452;DHT22;7827;53.594;9.938;2023-02-28T09:09:48;5.30;99.90
15452;DHT22;7827;53.594;9.938;2023-02-28T09:12:23;5.30;99.90
15452;DHT22;7827;53.594;9.938;2023-02-28T09:14:53;5.50;99.90
15452;DHT22;7827;53.594;9.938;2023-02-28T09:17:21;5.40;99.90
15452;DHT22;7827;53.594;9.938;2023-02-28T09:19:56;5.50;99.90
15452;DHT22;7827;53.594;9.938;2023-02-28T09:22:25;5.50;99.90
15452;DHT22;7827;53.594;9.938;2023-02-28T09:24:55;5.50;99.90
15452;DHT22;7827;53.594;9.938;2023-02-28T09:27:23;5.60;99.90
15452;DHT22;7827;53.594;9.938;2023-02-28T09:29:51;5.60;99.90
15452;DHT22;7827;53.594;9.938;2023-02-28T09:32:20;5.70;99.90
15452;DHT22;7827;53.594;9.938;2023-02-28T09:34:48;5.70;99.90
15452;DHT22;7827;53.594;9.938;2023-02-28T09:37:17;5.70;99.90
15452;DHT22;7827;53.594;9.938;2023-02-28T09:39:45;5.70;99.90
15452;DHT22;7827;53.594;9.938;2023-02-28T09:42:22;5.80;99.90
15452;DHT22;7827;53.594;9.938;2023-02-28T09:45:00;5.90;99.90
15452;DHT22;7827;53.594;9.938;2023-02-28T09:47:36;5.80;99.90
15452;DHT22;7827;53.594;9.938;2023-02-28T09:50:17;5.90;99.90
15452;DHT22;7827;53.594;9.938;2023-02-28T09:52:56;6.00;99.90
15452;DHT22;7827;53.594;9.938;2023-02-28T09:55:29;6.10;99.90
15452;DHT22;7827;53.594;9.938;2023-02-28T09:58:18;6.20;99.90
15452;DHT22;7827;53.594;9.938;2023-02-28T10:01:05;6.30;99.90
15452;DHT22;7827;53.594;9.938;2023-02-28T10:03:40;6.30;99.90
15452;DHT22;7827;53.594;9.938;2023-02-28T10:06:16;6.10;99.90
15452;DHT22;7827;53.594;9.938;2023-02-28T10:08:55;6.20;99.90
15452;DHT22;7827;53.594;9.938;2023-02-28T10:11:29;6.10;99.90
15452;DHT22;7827;53.594;9.938;2023-02-28T10:14:06;6.00;99.90
15452;DHT22;7827;53.594;9.938;2023-02-28T10:16:43;6.10;99.90
15452;DHT22;7827;53.594;9.938;2023-02-28T10:19:21;6.20;99.90
15452;DHT22;7827;53.594;9.938;2023-02-28T10:21:58;6.20;99.90
15452;DHT22;7827;53.594;9.938;2023-02-28T10:24:30;6.30;99.90
15452;DHT22;7827;53.594;9.938;2023-02-28T10:27:13;6.30;99.90
15452;DHT22;7827;53.594;9.938;2023-02-28T10:29:46;6.20;99.90
15452;DHT22;7827;53.594;9.938;2023-02-28T10:32:18;6.30;99.90
15452;DHT22;7827;53.594;9.938;2023-02-28T10:34:51;6.50;99.90
15452;DHT22;7827;53.594;9.938;2023-02-28T10:37:23;6.70;99.90
15452;DHT22;7827;53.594;9.938;2023-02-28T10:39:51;6.70;99.90
15452;DHT22;7827;53.594;9.938;2023-02-28T10:42:23;6.80;99.90
15452;DHT22;7827;53.594;9.938;2023-02-28T10:45:13;6.90;99.90
15452;DHT22;7827;53.594;9.938;2023-02-28T10:47:54;7.00;99.90
15452;DHT22;7827;53.594;9.938;2023-02-28T10:50:30;6.90;99.90
15452;DHT22;7827;53.594;9.938;2023-02-28T10:53:16;6.90;99.90
15452;DHT22;7827;53.594;9.938;2023-02-28T10:55:57;6.90;99.90
15452;DHT22;7827;53.594;9.938;2023-02-28T10:58:29;7.00;99.90
15452;DHT22;7827;53.594;9.938;2023-02-28T11:01:00;7.10;99.90
15452;DHT22;7827;53.594;9.938;2023-02-28T11:03:31;7.10;99.90
15452;DHT22;7827;53.594;9.938;2023-02-28T11:06:06;7.20;99.90
15452;DHT22;7827;53.594;9.938;2023-02-28T11:08:44;7.20;99.90
15452;DHT22;7827;53.594;9.938;2023-02-28T11:11:19;6.90;99.90
15452;DHT22;7827;53.594;9.938;2023-02-28T11:13:53;6.80;99.90
15452;DHT22;7827;53.594;9.938;2023-02-28T11:16:34;6.90;99.90
15452;DHT22;7827;53.594;9.938;2023-02-28T11:19:06;6.80;99.90
15452;DHT22;7827;53.594;9.938;2023-02-28T11:21:53;6.90;99.90
15452;DHT22;7827;53.594;9.938;2023-02-28T11:24:27;6.80;99.90
15452;DHT22;7827;53.594;9.938;2023-02-28T11:26:57;6.90;99.90
15452;DHT22;7827;53.594;9.938;2023-02-28T11:29:28;6.90;99.90
15452;DHT22;7827;53.594;9.938;2023-02-28T11:32:13;7.10;99.90
15452;DHT22;7827;53.594;9.938;2023-02-28T11:34:45;7.00;99.90
15452;DHT22;7827;53.594;9.938;2023-02-28T11:37:16;6.90;99.90
15452;DHT22;7827;53.594;9.938;2023-02-28T11:39:47;7.00;99.90
15452;DHT22;7827;53.594;9.938;2023-02-28T11:42:45;7.10;99.90
15452;DHT22;7827;53.594;9.938;2023-02-28T11:45:29;7.30;99.90
15452;DHT22;7827;53.594;9.938;2023-02-28T11:48:20;7.40;99.90
15452;DHT22;7827;53.594;9.938;2023-02-28T11:50:59;7.50;99.90
15452;DHT22;7827;53.594;9.938;2023-02-28T11:53:47;7.50;99.90
15452;DHT22;7827;53.594;9.938;2023-02-28T11:56:25;7.60;99.90
15452;DHT22;7827;53.594;9.938;2023-02-28T11:59:16;7.60;99.90
15452;DHT22;7827;53.594;9.938;2023-02-28T12:02:15;7.60;99.90
15452;DHT22;7827;53.594;9.938;2023-02-28T12:05:08;7.70;99.90
15452;DHT22;7827;53.594;9.938;2023-02-28T12:07:52;7.70;99.90
15452;DHT22;7827;53.594;9.938;2023-02-28T12:10:36;7.70;99.90
15452;DHT22;7827;53.594;9.938;2023-02-28T12:13:17;7.80;99.90
15452;DHT22;7827;53.594;9.938;2023-02-28T12:16:07;7.80;99.90
15452;DHT22;7827;53.594;9.938;2023-02-28T12:18:58;7.80;99.90
15452;DHT22;7827;53.594;9.938;2023-02-28T12:21:48;7.70;99.90
15452;DHT22;7827;53.594;9.938;2023-02-28T12:27:55;7.70;99.90
15452;DHT22;7827;53.594;9.938;2023-02-28T12:30:26;7.70;99.90
15452;DHT22;7827;53.594;9.938;2023-02-28T12:33:01;7.70;99.90
15452;DHT22;7827;53.594;9.938;2023-02-28T12:35:34;7.60;99.90
15452;DHT22;7827;53.594;9.938;2023-02-28T12:38:12;7.80;99.90
15452;DHT22;7827;53.594;9.938;2023-02-28T12:40:47;7.80;99.90
15452;DHT22;7827;53.594;9.938;2023-02-28T12:43:19;7.70;99.90
15452;DHT22;7827;53.594;9.938;2023-02-28T12:45:53;7.70;99.90
15452;DHT22;7827;53.594;9.938;2023-02-28T12:48:29;7.70;99.90
15452;DHT22;7827;53.594;9.938;2023-02-28T12:51:05;7.80;99.90
15452;DHT22;7827;53.594;9.938;2023-02-28T12:53:48;7.80;99.90
15452;DHT22;7827;53.594;9.938;2023-02-28T12:56:33;8.00;99.90
15452;DHT22;7827;53.594;9.938;2023-02-28T12:59:16;7.90;99.90
15452;DHT22;7827;53.594;9.938;2023-02-28T13:02:09;8.00;99.90
15452;DHT22;7827;53.594;9.938;2023-02-28T13:08:08;8.00;99.90
15452;DHT22;7827;53.594;9.938;2023-02-28T13:10:51;7.80;99.90
15452;DHT22;7827;53.594;9.938;2023-02-28T13:13:24;7.90;99.90
15452;DHT22;7827;53.594;9.938;2023-02-28T13:16:02;8.00;99.90
15452;DHT22;7827;53.594;9.938;2023-02-28T13:18:35;8.00;99.90
15452;DHT22;7827;53.594;9.938;2023-02-28T13:21:07;8.00;99.90
15452;DHT22;7827;53.594;9.938;2023-02-28T13:29:54;8.00;99.90
15452;DHT22;7827;53.594;9.938;2023-02-28T13:32:32;8.00;99.90
15452;DHT22;7827;53.594;9.938;2023-02-28T13:38:35;8.00;99.90
15452;DHT22;7827;53.594;9.938;2023-02-28T13:41:45;8.00;99.90
15452;DHT22;7827;53.594;9.938;2023-02-28T13:44:18;8.00;99.90
15452;DHT22;7827;53.594;9.938;2023-02-28T13:47:27;7.80;99.90
15452;DHT22;7827;53.594;9.938;2023-02-28T13:50:21;7.80;99.90
15452;DHT22;7827;53.594;9.938;2023-02-28T13:53:37;7.80;99.90
15452;DHT22;7827;53.594;9.938;2023-02-28T13:56:28;7.80;99.90
15452;DHT22;7827;53.594;9.938;2023-02-28T13:59:16;7.80;99.90
15452;DHT22;7827;53.594;9.938;2023-02-28T14:02:18;7.80;99.90
15452;DHT22;7827;53.594;9.938;2023-02-28T14:05:05;7.90;99.90
15452;DHT22;7827;53.594;9.938;2023-02-28T14:07:41;7.90;99.90
15452;DHT22;7827;53.594;9.938;2023-02-28T14:10:23;7.90;99.90
15452;DHT22;7827;53.594;9.938;2023-02-28T14:12:59;7.90;99.90
15452;DHT22;7827;53.594;9.938;2023-02-28T14:15:49;7.90;99.90
15452;DHT22;7827;53.594;9.938;2023-02-28T14:18:28;7.80;99.90
15452;DHT22;7827;53.594;9.938;2023-02-28T14:21:08;7.80;99.90
15452;DHT22;7827;53.594;9.938;2023-02-28T14:27:04;7.90;99.90
15452;DHT22;7827;53.594;9.938;2023-02-28T14:32:54;7.70;99.90
15452;DHT22;7827;53.594;9.938;2023-02-28T14:35:50;7.70;99.90
15452;DHT22;7827;53.594;9.938;2023-02-28T14:38:30;7.80;99.90
15452;DHT22;7827;53.594;9.938;2023-02-28T14:41:04;7.80;99.90
15452;DHT22;7827;53.594;9.938;2023-02-28T14:43:48;7.90;99.90
15452;DHT22;7827;53.594;9.938;2023-02-28T14:46:20;7.80;99.90
15452;DHT22;7827;53.594;9.938;2023-02-28T14:48:49;7.80;99.90
15452;DHT22;7827;53.594;9.938;2023-02-28T14:51:21;7.80;99.90
15452;DHT22;7827;53.594;9.938;2023-02-28T14:53:57;7.80;99.90
15452;DHT22;7827;53.594;9.938;2023-02-28T14:56:30;7.80;99.90
15452;DHT22;7827;53.594;9.938;2023-02-28T14:59:04;7.80;99.90
15452;DHT22;7827;53.594;9.938;2023-02-28T15:01:33;7.70;99.90
15452;DHT22;7827;53.594;9.938;2023-02-28T15:04:04;7.70;99.90
15452;DHT22;7827;53.594;9.938;2023-02-28T15:06:35;7.80;99.90
15452;DHT22;7827;53.594;9.938;2023-02-28T15:09:08;7.80;99.90
15452;DHT22;7827;53.594;9.938;2023-02-28T15:11:39;7.70;99.90
15452;DHT22;7827;53.594;9.938;2023-02-28T15:14:15;7.70;99.90
15452;DHT22;7827;53.594;9.938;2023-02-28T15:16:50;7.70;99.90
15452;DHT22;7827;53.594;9.938;2023-02-28T15:19:24;7.70;99.90
15452;DHT22;7827;53.594;9.938;2023-02-28T15:21:59;7.70;99.90
15452;DHT22;7827;53.594;9.938;2023-02-28T15:24:36;7.70;99.90
15452;DHT22;7827;53.594;9.938;2023-02-28T15:27:10;7.80;99.90
15452;DHT22;7827;53.594;9.938;2023-02-28T15:29:46;7.80;99.90
15452;DHT22;7827;53.594;9.938;2023-02-28T15:32:26;7.70;99.90
15452;DHT22;7827;53.594;9.938;2023-02-28T15:34:57;7.70;99.90
15452;DHT22;7827;53.594;9.938;2023-02-28T15:37:36;7.60;99.90
15452;DHT22;7827;53.594;9.938;2023-02-28T15:40:14;7.60;99.90
15452;DHT22;7827;53.594;9.938;2023-02-28T15:42:59;7.40;99.90
15452;DHT22;7827;53.594;9.938;2023-02-28T15:45:37;7.40;99.90
15452;DHT22;7827;53.594;9.938;2023-02-28T15:48:16;7.30;99.90
15452;DHT22;7827;53.594;9.938;2023-02-28T15:50:50;7.30;99.90
15452;DHT22;7827;53.594;9.938;2023-02-28T15:53:24;7.20;99.90
15452;DHT22;7827;53.594;9.938;2023-02-28T15:55:59;7.20;99.90
15452;DHT22;7827;53.594;9.938;2023-02-28T15:58:29;7.10;99.90
15452;DHT22;7827;53.594;9.938;2023-02-28T16:01:08;7.10;99.90
15452;DHT22;7827;53.594;9.938;2023-02-28T16:03:51;7.10;99.90
15452;DHT22;7827;53.594;9.938;2023-02-28T16:06:36;7.20;99.90
15452;DHT22;7827;53.594;9.938;2023-02-28T16:09:10;7.10;99.90
15452;DHT22;7827;53.594;9.938;2023-02-28T16:11:43;7.00;99.90
15452;DHT22;7827;53.594;9.938;2023-02-28T16:14:17;6.90;99.90
15452;DHT22;7827;53.594;9.938;2023-02-28T16:16:49;6.80;99.90
15452;DHT22;7827;53.594;9.938;2023-02-28T16:19:20;6.80;99.90
15452;DHT22;7827;53.594;9.938;2023-02-28T16:21:49;6.70;99.90
15452;DHT22;7827;53.594;9.938;2023-02-28T16:24:19;6.70;99.90
15452;DHT22;7827;53.594;9.938;2023-02-28T16:26:49;6.60;99.90
15452;DHT22;7827;53.594;9.938;2023-02-28T16:29:24;6.50;99.90
15452;DHT22;7827;53.594;9.938;2023-02-28T16:31:54;6.50;99.90
15452;DHT22;7827;53.594;9.938;2023-02-28T16:34:23;6.40;99.90
15452;DHT22;7827;53.594;9.938;2023-02-28T16:36:53;6.40;99.90
15452;DHT22;7827;53.594;9.938;2023-02-28T16:39:22;6.40;99.90
15452;DHT22;7827;53.594;9.938;2023-02-28T16:41:52;6.30;99.90
15452;DHT22;7827;53.594;9.938;2023-02-28T16:44:26;6.30;99.90
15452;DHT22;7827;53.594;9.938;2023-02-28T16:46:56;6.20;99.90
15452;DHT22;7827;53.594;9.938;2023-02-28T16:49:27;6.20;99.90
15452;DHT22;7827;53.594;9.938;2023-02-28T16:51:56;6.10;99.90
15452;DHT22;7827;53.594;9.938;2023-02-28T16:54:25;6.10;99.90
15452;DHT22;7827;53.594;9.938;2023-02-28T16:56:54;6.00;99.90
15452;DHT22;7827;53.594;9.938;2023-02-28T16:59:23;5.90;99.90
15452;DHT22;7827;53.594;9.938;2023-02-28T17:01:54;5.90;99.90
15452;DHT22;7827;53.594;9.938;2023-02-28T17:04:24;5.80;99.90
15452;DHT22;7827;53.594;9.938;2023-02-28T17:06:53;5.80;99.90
15452;DHT22;7827;53.594;9.938;2023-02-28T17:09:22;5.70;99.90
15452;DHT22;7827;53.594;9.938;2023-02-28T17:12:09;5.70;99.90
15452;DHT22;7827;53.594;9.938;2023-02-28T17:14:38;5.60;99.90